This is the latest recevied weather packets stored in our database for station/object EA2KR-10. If no packets are shown the sender has not sent any weather packets the latest 1 day(s).
| Time | Temp. | Humidity | Pressure | Rain* | Wind** | Luminosity | Snow |
|---|---|---|---|---|---|---|---|
| 1777937698 | 10.56° C | 71% | 1023.7 hPa | - | - | - | - |
| 1777935897 | 11.11° C | 70% | 1024.1 hPa | - | - | - | - |
| 1777933913 | 11.11° C | 70% | 1024.2 hPa | - | - | - | - |
| 1777931930 | 11.11° C | 71% | 1024.1 hPa | - | - | - | - |
| 1777929946 | 11.11° C | 70% | 1024.7 hPa | - | - | - | - |
| 1777927963 | 11.11° C | 70% | 1024.5 hPa | - | - | - | - |
| 1777925979 | 11.67° C | 70% | 1024.4 hPa | - | - | - | - |
| 1777924656 | 10.56° C | 70% | 1024.1 hPa | - | - | - | - |
| 1777922012 | 11.11° C | 69% | 1023.8 hPa | - | - | - | - |
| 1777920359 | 12.22° C | 67% | 1023.6 hPa | - | - | - | - |
| 1777918046 | 13.33° C | 63% | 1023.4 hPa | - | - | - | - |
| 1777916062 | 15.56° C | 60% | 1023.1 hPa | - | - | - | - |
| 1777914408 | 15.56° C | 63% | 1023.3 hPa | - | - | - | - |
| 1777912095 | 16.67° C | 58% | 1023 hPa | - | - | - | - |
| 1777910111 | 15.56° C | 64% | 1023 hPa | - | - | - | - |
| 1777908458 | 15° C | 63% | 1022.6 hPa | - | - | - | - |
| 1777906804 | 17.78° C | 61% | 1022.7 hPa | - | - | - | - |
| 1777904821 | 18.33° C | 62% | 1023.1 hPa | - | - | - | - |
| 1777900539 | 12.22° C | 69% | 1023.3 hPa | - | - | - | - |
| 1777898739 | 12.22° C | 68% | 1023.7 hPa | - | - | - | - |
| 1777896938 | 12.78° C | 69% | 1023.4 hPa | - | - | - | - |
| 1777895138 | 13.33° C | 68% | 1022.3 hPa | - | - | - | - |
| 1777893340 | 13.89° C | 67% | 1022.6 hPa | - | - | - | - |
| 1777891540 | 15.56° C | 64% | 1023.1 hPa | - | - | - | - |
| 1777889740 | 21.11° C | 59% | 1022.6 hPa | - | - | - | - |
* Rain since midnight (hover to see other rain measurements)
** Current wind speed in m/s (hover to see current wind gust speed)